Time;durP1;ratioP1;P1;durP2;ratioP2;P2;SDS_P1;SDS_P2;PMS_P1;PMS_P2;Temp;Humidity;BMP_temperature;BMP_pressure;BME280_temperature;BME280_humidity;BME280_pressure;Samples;Min_cycle;Max_cycle;Signal;HPM_P1;HPM_P2
2024/01/30 00:02:15;;;;;;;15.17;10.33;;;6.80;99.90;;;;;;5005665;28;20228;-67
2024/01/30 00:04:41;;;;;;;10.33;8.23;;;6.80;99.90;;;;;;5018305;28;20448;-66
2024/01/30 00:07:07;;;;;;;11.80;9.67;;;6.80;99.90;;;;;;5010592;28;20200;-66
2024/01/30 00:09:33;;;;;;;13.03;9.33;;;6.80;99.90;;;;;;5009862;28;20420;-67
2024/01/30 00:11:58;;;;;;;14.50;8.90;;;6.80;99.90;;;;;;5007561;28;20464;-67
2024/01/30 00:14:24;;;;;;;14.00;10.03;;;6.80;99.90;;;;;;5011715;28;20761;-66
2024/01/30 00:16:51;;;;;;;11.30;8.77;;;6.80;99.90;;;;;;5012636;28;20279;-67
2024/01/30 00:19:16;;;;;;;10.00;8.17;;;6.80;99.90;;;;;;5008957;28;20608;-67
2024/01/30 00:21:42;;;;;;;11.80;7.70;;;6.80;99.90;;;;;;5014401;28;20435;-67
2024/01/30 00:24:07;;;;;;;10.33;7.90;;;6.80;99.90;;;;;;5007976;28;20201;-67
2024/01/30 00:26:33;;;;;;;13.17;8.53;;;6.70;99.90;;;;;;5025249;28;20184;-66
2024/01/30 00:28:59;;;;;;;11.97;8.07;;;6.70;99.90;;;;;;5019592;28;20213;-67
2024/01/30 00:31:24;;;;;;;10.80;7.40;;;6.70;99.90;;;;;;5020804;28;20784;-66
2024/01/30 00:33:50;;;;;;;16.53;8.10;;;6.70;99.90;;;;;;5015377;28;20604;-68
2024/01/30 00:36:16;;;;;;;11.07;8.03;;;6.70;99.90;;;;;;5019133;28;20213;-66
2024/01/30 00:38:41;;;;;;;10.23;7.43;;;6.70;99.90;;;;;;5016458;28;20235;-67
2024/01/30 00:41:09;;;;;;;9.20;7.90;;;6.70;99.90;;;;;;5016575;28;20196;-67
2024/01/30 00:43:34;;;;;;;11.13;8.17;;;6.70;99.90;;;;;;5016280;28;20263;-67
2024/01/30 00:46:00;;;;;;;10.23;7.43;;;6.70;99.90;;;;;;5014718;28;20476;-67
2024/01/30 00:48:26;;;;;;;11.10;8.10;;;6.70;99.90;;;;;;5014899;28;20184;-67
2024/01/30 00:50:51;;;;;;;11.00;8.40;;;6.70;99.90;;;;;;5011747;28;20185;-67
2024/01/30 00:53:17;;;;;;;8.97;7.60;;;6.70;99.90;;;;;;5014673;28;20216;-67
2024/01/30 00:55:43;;;;;;;10.63;8.27;;;6.70;99.90;;;;;;5016091;28;20196;-67
2024/01/30 00:58:09;;;;;;;10.40;7.77;;;6.70;99.90;;;;;;5006625;28;20216;-67
2024/01/30 01:00:34;;;;;;;12.20;8.10;;;6.70;99.90;;;;;;5015022;28;20181;-67
2024/01/30 01:03:00;;;;;;;8.70;7.03;;;6.70;99.90;;;;;;5017081;28;20431;-67
2024/01/30 01:05:25;;;;;;;11.50;7.10;;;6.70;99.90;;;;;;5015872;28;20211;-67
2024/01/30 01:07:51;;;;;;;11.20;8.00;;;6.70;99.90;;;;;;5021667;28;20620;-67
2024/01/30 01:10:18;;;;;;;10.00;7.67;;;6.70;99.90;;;;;;5015478;28;20188;-67
2024/01/30 01:12:44;;;;;;;10.63;7.10;;;6.70;99.90;;;;;;5012475;28;20802;-67
2024/01/30 01:15:10;;;;;;;12.37;7.67;;;6.70;99.90;;;;;;5012694;28;20534;-68
2024/01/30 01:17:36;;;;;;;11.30;7.70;;;6.70;99.90;;;;;;5013830;28;20550;-67
2024/01/30 01:20:03;;;;;;;10.60;6.67;;;6.60;99.90;;;;;;5015222;28;20247;-66
2024/01/30 01:22:29;;;;;;;11.10;6.90;;;6.60;99.90;;;;;;5011825;28;20534;-66
2024/01/30 01:24:54;;;;;;;9.47;7.60;;;6.50;99.90;;;;;;5015075;28;20553;-66
2024/01/30 01:27:21;;;;;;;11.07;7.30;;;6.50;99.90;;;;;;5015781;28;20188;-66
2024/01/30 01:29:46;;;;;;;10.83;7.50;;;6.60;99.90;;;;;;5014332;28;20240;-67
2024/01/30 01:32:12;;;;;;;8.63;7.13;;;6.60;99.90;;;;;;5015406;28;20446;-67
2024/01/30 01:34:37;;;;;;;11.00;7.33;;;6.60;99.90;;;;;;5016082;28;20216;-67
2024/01/30 01:37:04;;;;;;;9.40;6.73;;;6.60;99.90;;;;;;5016779;28;20809;-67
2024/01/30 01:39:29;;;;;;;10.10;7.73;;;6.60;99.90;;;;;;5011105;28;20503;-67
2024/01/30 01:41:55;;;;;;;8.40;7.40;;;6.60;99.90;;;;;;5021336;28;20701;-67
2024/01/30 01:44:20;;;;;;;8.80;6.50;;;6.60;99.90;;;;;;5013555;28;20222;-67
2024/01/30 01:46:46;;;;;;;8.63;6.90;;;6.60;99.90;;;;;;5013631;28;20220;-67
2024/01/30 01:49:13;;;;;;;11.40;7.13;;;6.60;99.90;;;;;;5013658;28;20197;-69
2024/01/30 01:51:40;;;;;;;10.57;7.60;;;6.60;99.90;;;;;;5007625;28;21006;-67
2024/01/30 01:54:07;;;;;;;10.47;7.57;;;6.60;99.90;;;;;;5018146;28;21525;-67
2024/01/30 01:56:33;;;;;;;12.30;6.97;;;6.60;99.90;;;;;;5015167;28;20497;-67
2024/01/30 01:59:07;;;;;;;11.80;7.00;;;6.60;99.90;;;;;;5015536;28;20423;-67
2024/01/30 02:01:34;;;;;;;11.00;7.17;;;6.60;99.90;;;;;;5012196;28;20937;-67
2024/01/30 02:04:00;;;;;;;11.57;7.20;;;6.60;99.90;;;;;;5019014;28;20455;-67
2024/01/30 02:06:27;;;;;;;12.07;8.03;;;6.60;99.90;;;;;;5014870;28;20474;-68
2024/01/30 02:08:53;;;;;;;9.30;7.00;;;6.60;99.90;;;;;;5017260;28;20451;-67
2024/01/30 02:11:20;;;;;;;13.10;7.97;;;6.60;99.90;;;;;;5020866;28;20423;-67
2024/01/30 02:13:46;;;;;;;12.27;7.63;;;6.60;99.90;;;;;;5019154;28;20443;-68
2024/01/30 02:16:11;;;;;;;12.43;7.30;;;6.60;99.90;;;;;;5013408;28;20881;-67
2024/01/30 02:18:41;;;;;;;10.50;7.80;;;6.60;99.90;;;;;;5019117;28;20259;-67
2024/01/30 02:21:08;;;;;;;9.43;7.70;;;6.60;99.90;;;;;;5017688;28;20212;-67
2024/01/30 02:23:34;;;;;;;12.03;8.43;;;6.60;99.90;;;;;;5010962;28;20462;-67
2024/01/30 02:26:00;;;;;;;12.00;8.10;;;6.60;99.90;;;;;;5015493;28;20601;-67
2024/01/30 02:28:27;;;;;;;11.90;8.10;;;6.60;99.90;;;;;;5009009;28;21233;-67
2024/01/30 02:30:52;;;;;;;10.43;7.60;;;6.50;99.90;;;;;;5017161;28;20936;-67
2024/01/30 02:33:18;;;;;;;8.73;7.10;;;6.50;99.90;;;;;;5009562;28;20485;-67
2024/01/30 02:35:44;;;;;;;9.80;7.27;;;6.50;99.90;;;;;;5012422;28;20215;-67
2024/01/30 02:38:09;;;;;;;8.90;7.17;;;6.50;99.90;;;;;;5014505;28;20220;-68
2024/01/30 02:40:35;;;;;;;12.17;7.30;;;6.50;99.90;;;;;;5013549;28;20231;-67
2024/01/30 02:43:02;;;;;;;8.47;7.50;;;6.50;99.90;;;;;;5010414;28;20188;-66
2024/01/30 02:45:27;;;;;;;10.03;7.50;;;6.40;99.90;;;;;;5016499;28;20639;-66
2024/01/30 02:47:53;;;;;;;9.33;6.90;;;6.40;99.90;;;;;;5009143;28;20432;-67
2024/01/30 02:50:19;;;;;;;9.93;7.57;;;6.40;99.90;;;;;;5006696;28;20204;-67
2024/01/30 02:52:44;;;;;;;10.67;7.60;;;6.40;99.90;;;;;;5011945;28;20208;-66
2024/01/30 02:55:11;;;;;;;12.57;8.27;;;6.40;99.90;;;;;;5017786;28;20215;-66
2024/01/30 02:57:36;;;;;;;10.77;7.97;;;6.40;99.90;;;;;;5015081;28;20212;-66
2024/01/30 03:00:03;;;;;;;10.07;7.70;;;6.40;99.90;;;;;;5014301;28;20798;-66
2024/01/30 03:02:29;;;;;;;9.30;7.20;;;6.40;99.90;;;;;;5015318;28;20211;-66
2024/01/30 03:04:55;;;;;;;14.40;7.60;;;6.30;99.90;;;;;;5018514;28;20444;-67
2024/01/30 03:07:20;;;;;;;10.27;7.53;;;6.30;99.90;;;;;;5011434;28;20196;-66
2024/01/30 03:09:46;;;;;;;10.40;8.37;;;6.30;99.90;;;;;;5009886;28;20201;-67
2024/01/30 03:12:11;;;;;;;11.67;8.43;;;6.30;99.90;;;;;;5015405;28;20193;-67
2024/01/30 03:14:37;;;;;;;10.27;8.10;;;6.30;99.90;;;;;;5012180;28;20210;-66
2024/01/30 03:17:03;;;;;;;13.00;8.27;;;6.20;99.90;;;;;;5017302;28;20946;-66
2024/01/30 03:19:29;;;;;;;7.60;6.80;;;6.20;99.90;;;;;;5015428;28;20407;-66
2024/01/30 03:21:54;;;;;;;10.87;7.40;;;6.20;99.90;;;;;;5015301;28;20215;-66
2024/01/30 03:24:20;;;;;;;10.00;7.77;;;6.20;99.90;;;;;;5011542;28;20204;-66
2024/01/30 03:26:46;;;;;;;9.80;7.27;;;6.20;99.90;;;;;;5009336;28;20189;-66
2024/01/30 03:29:11;;;;;;;10.03;7.10;;;6.20;99.90;;;;;;5014181;28;20762;-66
2024/01/30 03:31:37;;;;;;;11.30;7.67;;;6.10;99.90;;;;;;5007847;28;20196;-66
2024/01/30 03:34:02;;;;;;;11.37;7.50;;;6.10;99.90;;;;;;5012740;28;20212;-67
2024/01/30 03:36:28;;;;;;;8.83;6.93;;;6.10;99.90;;;;;;5016734;28;20230;-67
2024/01/30 03:38:54;;;;;;;9.53;7.07;;;6.10;99.90;;;;;;5019340;28;20180;-67
2024/01/30 03:41:19;;;;;;;13.50;7.03;;;6.10;99.90;;;;;;5014491;28;20181;-66
2024/01/30 03:43:45;;;;;;;8.87;6.60;;;6.10;99.90;;;;;;5015366;28;20208;-66
2024/01/30 03:46:12;;;;;;;9.57;6.43;;;6.10;99.90;;;;;;5017054;28;20180;-66
2024/01/30 03:48:39;;;;;;;9.10;6.70;;;6.10;99.90;;;;;;5018127;28;20212;-66
2024/01/30 03:51:05;;;;;;;8.87;7.43;;;6.10;99.90;;;;;;5013677;28;20466;-66
2024/01/30 03:53:30;;;;;;;9.07;6.90;;;6.00;99.90;;;;;;5011473;28;20482;-66
2024/01/30 03:55:56;;;;;;;8.43;6.73;;;6.00;99.90;;;;;;5014971;28;20439;-66
2024/01/30 03:58:22;;;;;;;9.37;7.60;;;6.00;99.90;;;;;;5014446;28;20479;-66
2024/01/30 04:00:48;;;;;;;11.53;7.13;;;6.00;99.90;;;;;;5017418;28;20189;-66
2024/01/30 04:03:15;;;;;;;9.07;7.90;;;5.90;99.90;;;;;;5014228;28;20236;-66
2024/01/30 04:05:41;;;;;;;9.77;6.50;;;5.90;99.90;;;;;;5006777;28;20227;-67
2024/01/30 04:08:07;;;;;;;11.13;7.20;;;5.90;99.90;;;;;;5018917;28;20423;-67
2024/01/30 04:10:33;;;;;;;9.03;6.73;;;5.90;99.90;;;;;;5015943;28;20434;-67
2024/01/30 04:12:59;;;;;;;10.37;6.93;;;5.90;99.90;;;;;;5009372;28;20542;-67
2024/01/30 04:15:25;;;;;;;10.13;7.40;;;5.90;99.90;;;;;;5014438;28;20228;-67
2024/01/30 04:17:51;;;;;;;11.00;7.23;;;5.90;99.90;;;;;;5016438;28;20470;-66
2024/01/30 04:20:16;;;;;;;11.33;6.90;;;5.90;99.90;;;;;;5009474;28;20508;-66
2024/01/30 04:22:46;;;;;;;10.47;6.03;;;5.80;99.90;;;;;;5017050;28;20206;-66
2024/01/30 04:25:12;;;;;;;6.90;5.40;;;5.80;99.90;;;;;;5016109;28;20200;-66
2024/01/30 04:27:38;;;;;;;8.53;7.43;;;5.80;99.90;;;;;;5012294;28;20705;-66
2024/01/30 04:30:04;;;;;;;7.70;5.87;;;5.80;99.90;;;;;;5016365;28;20491;-66
2024/01/30 04:32:30;;;;;;;8.33;6.37;;;5.80;99.90;;;;;;5018035;28;20690;-66
2024/01/30 04:34:55;;;;;;;8.37;6.20;;;5.80;99.90;;;;;;5013345;28;20436;-66
2024/01/30 04:37:21;;;;;;;9.33;6.30;;;5.80;99.90;;;;;;5010880;28;20209;-66
2024/01/30 04:39:47;;;;;;;8.47;6.63;;;5.80;99.90;;;;;;5020214;28;20714;-66
2024/01/30 04:42:12;;;;;;;10.10;7.33;;;5.80;99.90;;;;;;5017732;28;20681;-66
2024/01/30 04:44:38;;;;;;;10.50;6.80;;;5.80;99.90;;;;;;5012612;28;20311;-66
2024/01/30 04:47:05;;;;;;;9.87;6.70;;;5.70;99.90;;;;;;5017335;28;20196;-66
2024/01/30 04:49:31;;;;;;;6.87;6.07;;;5.70;99.90;;;;;;5014876;28;20189;-67
2024/01/30 04:51:57;;;;;;;8.63;6.50;;;5.70;99.90;;;;;;5017698;28;20419;-67
2024/01/30 04:54:23;;;;;;;10.03;7.50;;;5.70;99.90;;;;;;5013275;28;20683;-66
2024/01/30 04:56:48;;;;;;;9.67;5.97;;;5.70;99.90;;;;;;5015512;28;20475;-67
2024/01/30 04:59:14;;;;;;;10.73;6.30;;;5.70;99.90;;;;;;5009037;28;20287;-67
2024/01/30 05:01:40;;;;;;;9.40;6.70;;;5.70;99.90;;;;;;5017594;28;20581;-66
2024/01/30 05:04:09;;;;;;;10.73;6.90;;;5.70;99.90;;;;;;5010412;28;20298;-66
2024/01/30 05:06:35;;;;;;;9.93;6.73;;;5.70;99.90;;;;;;5016941;28;20208;-66
2024/01/30 05:09:01;;;;;;;11.67;6.67;;;5.70;99.90;;;;;;5014631;28;20478;-66
2024/01/30 05:11:26;;;;;;;8.40;6.27;;;5.70;99.90;;;;;;5009779;28;20276;-66
2024/01/30 05:13:52;;;;;;;8.20;6.33;;;5.70;99.90;;;;;;5018071;28;20262;-66
2024/01/30 05:16:17;;;;;;;8.63;7.30;;;5.70;99.90;;;;;;5014059;28;20201;-66
2024/01/30 05:18:43;;;;;;;8.30;6.13;;;5.70;99.90;;;;;;5017038;28;20192;-66
2024/01/30 05:21:10;;;;;;;8.90;6.30;;;5.70;99.90;;;;;;5010490;28;20718;-66
2024/01/30 05:23:36;;;;;;;8.03;6.10;;;5.70;99.90;;;;;;5007214;28;20213;-66
2024/01/30 05:26:02;;;;;;;8.37;6.53;;;5.70;99.90;;;;;;5013137;28;20750;-66
2024/01/30 05:28:30;;;;;;;8.37;6.43;;;5.70;99.90;;;;;;5010967;28;20177;-66
2024/01/30 05:30:56;;;;;;;9.03;6.57;;;5.70;99.90;;;;;;5013997;28;20502;-67
2024/01/30 05:33:22;;;;;;;11.67;6.93;;;5.70;99.90;;;;;;5013896;28;20462;-66
2024/01/30 05:35:48;;;;;;;7.87;6.73;;;5.70;99.90;;;;;;5010779;28;20428;-66
2024/01/30 05:38:15;;;;;;;8.57;6.43;;;5.70;99.90;;;;;;5017684;28;20212;-66
2024/01/30 05:40:41;;;;;;;6.53;5.83;;;5.70;99.90;;;;;;5013749;28;20812;-66
2024/01/30 05:43:07;;;;;;;9.03;5.93;;;5.70;99.90;;;;;;5014109;28;20427;-66
2024/01/30 05:45:34;;;;;;;7.57;6.70;;;5.80;99.90;;;;;;5017907;28;20700;-66
2024/01/30 05:48:00;;;;;;;7.70;5.93;;;5.80;99.90;;;;;;5013263;28;20436;-66
2024/01/30 05:50:26;;;;;;;9.00;6.10;;;5.70;99.90;;;;;;5012658;28;21136;-66
2024/01/30 05:52:52;;;;;;;9.80;5.87;;;5.80;99.90;;;;;;5013080;28;20427;-66
2024/01/30 05:55:18;;;;;;;7.63;6.20;;;5.80;99.90;;;;;;5018661;28;20983;-66
2024/01/30 05:57:43;;;;;;;9.10;5.93;;;5.80;99.90;;;;;;5012092;28;20601;-66
2024/01/30 06:00:09;;;;;;;7.80;5.63;;;5.80;99.90;;;;;;5014022;28;20184;-68
2024/01/30 06:02:35;;;;;;;7.60;5.40;;;5.80;99.90;;;;;;5016626;28;20191;-66
2024/01/30 06:05:01;;;;;;;9.63;6.00;;;5.70;99.90;;;;;;5017940;28;21438;-66
2024/01/30 06:07:26;;;;;;;7.87;5.80;;;5.70;99.90;;;;;;5010289;28;20638;-65
2024/01/30 06:09:52;;;;;;;7.40;5.70;;;5.70;99.90;;;;;;5012391;28;20185;-66
2024/01/30 06:12:17;;;;;;;10.07;5.83;;;5.70;99.90;;;;;;5017191;28;20196;-66
2024/01/30 06:14:43;;;;;;;8.60;6.67;;;5.70;99.90;;;;;;5014337;28;20209;-67
2024/01/30 06:17:09;;;;;;;10.43;6.93;;;5.70;99.90;;;;;;5013234;28;20249;-66
2024/01/30 06:19:35;;;;;;;9.57;6.90;;;5.70;99.90;;;;;;5011306;28;20659;-67
2024/01/30 06:22:00;;;;;;;7.60;6.00;;;5.70;99.90;;;;;;5010523;28;20451;-66
2024/01/30 06:24:27;;;;;;;9.67;6.60;;;5.70;99.90;;;;;;5013115;28;20208;-67
2024/01/30 06:26:53;;;;;;;9.10;6.57;;;5.70;99.90;;;;;;5015110;28;20185;-65
2024/01/30 06:29:18;;;;;;;7.20;5.80;;;5.70;99.90;;;;;;5014349;28;20993;-66
2024/01/30 06:31:44;;;;;;;9.07;6.23;;;5.70;99.90;;;;;;5011025;28;20648;-66
2024/01/30 06:34:11;;;;;;;13.83;6.80;;;5.70;99.90;;;;;;5006144;28;20212;-66
2024/01/30 06:36:37;;;;;;;9.37;6.07;;;5.70;99.90;;;;;;5011822;28;20216;-66
2024/01/30 06:39:03;;;;;;;9.17;6.60;;;5.70;99.90;;;;;;5016826;28;20412;-67
2024/01/30 06:41:29;;;;;;;10.30;6.00;;;5.70;99.90;;;;;;5013185;28;20189;-67
2024/01/30 06:43:55;;;;;;;8.07;6.53;;;5.70;99.90;;;;;;5011579;28;20967;-67
2024/01/30 06:46:21;;;;;;;12.33;7.40;;;5.60;99.90;;;;;;5011209;28;20476;-66
2024/01/30 06:48:46;;;;;;;9.67;6.70;;;5.70;99.90;;;;;;5011317;28;20434;-67
2024/01/30 06:51:12;;;;;;;8.73;6.37;;;5.70;99.90;;;;;;5017793;28;20184;-67
2024/01/30 06:53:38;;;;;;;8.40;6.33;;;5.70;99.90;;;;;;5011519;28;20586;-68
2024/01/30 06:56:04;;;;;;;10.33;6.77;;;5.70;99.90;;;;;;5009613;28;20283;-67
2024/01/30 06:58:30;;;;;;;11.00;6.40;;;5.70;99.90;;;;;;5018408;28;20861;-67
2024/01/30 07:00:56;;;;;;;11.57;6.90;;;5.70;99.90;;;;;;5012227;28;20435;-69
2024/01/30 07:03:21;;;;;;;10.37;7.23;;;5.70;99.90;;;;;;5018074;28;20191;-69
2024/01/30 07:05:47;;;;;;;11.00;7.83;;;5.70;99.90;;;;;;5009959;28;21125;-67
2024/01/30 07:08:13;;;;;;;9.80;7.90;;;5.70;99.90;;;;;;5012739;28;20185;-67
2024/01/30 07:10:38;;;;;;;12.30;7.43;;;5.70;99.90;;;;;;5010655;28;20184;-67
2024/01/30 07:13:05;;;;;;;13.60;8.70;;;5.70;99.90;;;;;;5018579;28;20271;-67
2024/01/30 07:15:31;;;;;;;13.20;8.13;;;5.70;99.90;;;;;;5010180;28;20423;-68
2024/01/30 07:17:57;;;;;;;11.63;7.13;;;5.70;99.90;;;;;;5011266;28;20618;-67
2024/01/30 07:20:22;;;;;;;13.73;7.77;;;5.70;99.90;;;;;;5004763;28;20192;-68
2024/01/30 07:22:48;;;;;;;9.63;6.73;;;5.80;99.90;;;;;;5006561;28;20277;-66
2024/01/30 07:25:14;;;;;;;11.63;7.50;;;5.80;99.90;;;;;;5014612;28;20219;-66
2024/01/30 07:27:39;;;;;;;15.67;10.00;;;5.80;99.90;;;;;;5009892;28;20176;-67
2024/01/30 07:30:05;;;;;;;22.40;11.67;;;5.80;99.90;;;;;;5016016;28;20199;-66
2024/01/30 07:32:31;;;;;;;18.27;11.47;;;5.80;99.90;;;;;;5012908;28;20192;-67
2024/01/30 07:34:57;;;;;;;19.47;10.77;;;5.90;99.90;;;;;;5021141;28;20489;-66
2024/01/30 07:37:22;;;;;;;15.03;10.60;;;5.90;99.90;;;;;;5018478;28;20200;-67
2024/01/30 07:39:48;;;;;;;18.03;9.73;;;5.90;99.90;;;;;;5018780;28;20271;-67
2024/01/30 07:42:14;;;;;;;13.57;9.90;;;5.90;99.90;;;;;;5015158;28;20624;-67
2024/01/30 07:44:39;;;;;;;12.93;8.77;;;5.90;99.90;;;;;;5013716;28;22023;-67
2024/01/30 07:47:05;;;;;;;21.60;9.70;;;5.90;99.90;;;;;;5012818;28;20184;-68
2024/01/30 07:49:34;;;;;;;17.50;9.87;;;5.90;99.90;;;;;;5014645;28;20173;-67
2024/01/30 07:51:59;;;;;;;11.60;9.30;;;6.00;99.90;;;;;;5012531;28;20215;-68
2024/01/30 07:54:25;;;;;;;11.27;8.13;;;6.00;99.90;;;;;;5013146;28;20450;-69
2024/01/30 07:56:51;;;;;;;11.80;9.17;;;6.00;99.90;;;;;;5012781;28;20208;-67
2024/01/30 07:59:16;;;;;;;12.53;8.53;;;6.10;99.90;;;;;;5017183;28;20193;-68
2024/01/30 08:01:42;;;;;;;9.30;7.60;;;6.10;99.90;;;;;;5012905;28;20184;-69
2024/01/30 08:04:07;;;;;;;11.70;7.93;;;6.10;99.90;;;;;;5013860;28;20208;-69
2024/01/30 08:06:33;;;;;;;13.10;7.37;;;6.20;99.90;;;;;;5016654;28;20252;-67
2024/01/30 08:08:59;;;;;;;11.20;7.00;;;6.20;99.90;;;;;;5013242;28;20180;-67
2024/01/30 08:11:26;;;;;;;11.47;7.23;;;6.20;99.90;;;;;;5016987;28;20722;-67
2024/01/30 08:13:55;;;;;;;9.30;7.97;;;6.30;99.90;;;;;;5008746;28;20934;-67
2024/01/30 08:16:20;;;;;;;10.30;7.57;;;6.30;99.90;;;;;;5017501;28;20435;-67
2024/01/30 08:18:46;;;;;;;11.60;8.47;;;6.40;99.90;;;;;;5014656;28;20816;-68
2024/01/30 08:21:11;;;;;;;10.30;8.37;;;6.40;99.90;;;;;;5010446;28;20632;-68
2024/01/30 08:23:40;;;;;;;13.33;8.63;;;6.50;99.90;;;;;;5011046;28;20193;-67
2024/01/30 08:26:06;;;;;;;11.73;9.50;;;6.60;99.90;;;;;;5010879;28;20181;-67
2024/01/30 08:28:31;;;;;;;15.33;10.43;;;6.60;99.90;;;;;;5016369;28;21018;-67
2024/01/30 08:30:57;;;;;;;14.90;10.40;;;6.70;99.90;;;;;;5009274;28;20184;-67
2024/01/30 08:33:22;;;;;;;14.60;10.83;;;6.80;99.90;;;;;;5013072;28;20558;-67
2024/01/30 08:35:48;;;;;;;17.00;11.40;;;6.80;99.90;;;;;;5013787;28;20188;-67
2024/01/30 08:38:14;;;;;;;15.57;11.77;;;6.90;99.90;;;;;;5019616;28;20305;-67
2024/01/30 08:40:39;;;;;;;16.50;12.30;;;7.00;99.90;;;;;;5013799;28;20183;-67
2024/01/30 08:43:05;;;;;;;17.43;12.03;;;7.10;99.90;;;;;;5015868;28;20621;-68
2024/01/30 08:45:30;;;;;;;13.53;11.63;;;7.10;99.90;;;;;;5014252;28;20206;-68
2024/01/30 08:47:56;;;;;;;15.33;11.87;;;7.10;99.90;;;;;;5015008;28;20295;-68
2024/01/30 08:50:22;;;;;;;13.53;11.20;;;7.20;99.90;;;;;;5015697;28;20176;-68
2024/01/30 08:52:50;;;;;;;15.57;11.13;;;7.20;99.90;;;;;;5016344;28;20177;-67
2024/01/30 08:55:16;;;;;;;15.27;11.47;;;7.30;99.90;;;;;;5014345;28;20207;-68
2024/01/30 08:57:42;;;;;;;16.10;11.43;;;7.30;99.90;;;;;;5015029;28;20463;-69
2024/01/30 09:00:09;;;;;;;13.97;10.33;;;7.40;99.90;;;;;;5011118;28;20663;-68
2024/01/30 09:02:35;;;;;;;12.70;10.50;;;7.50;99.90;;;;;;5010431;28;20529;-68
2024/01/30 09:05:00;;;;;;;14.30;10.57;;;7.50;99.90;;;;;;5014370;28;20485;-68
2024/01/30 09:07:26;;;;;;;14.57;11.03;;;7.60;99.90;;;;;;5009332;28;20487;-69
2024/01/30 09:09:52;;;;;;;14.13;10.97;;;7.70;99.90;;;;;;5019146;28;20595;-69
2024/01/30 09:12:17;;;;;;;11.50;9.90;;;7.90;99.90;;;;;;5014328;28;20336;-69
2024/01/30 09:14:43;;;;;;;17.10;9.50;;;7.90;99.90;;;;;;5011336;28;20204;-69
2024/01/30 09:17:09;;;;;;;11.60;9.10;;;7.90;99.90;;;;;;5017983;28;20204;-69
2024/01/30 09:19:34;;;;;;;11.87;9.50;;;7.90;99.90;;;;;;5011849;28;20672;-69
2024/01/30 09:22:00;;;;;;;14.23;10.80;;;7.90;99.90;;;;;;5013588;28;20186;-69
2024/01/30 09:24:26;;;;;;;16.23;9.47;;;7.90;99.90;;;;;;5015935;28;20196;-69
2024/01/30 09:26:52;;;;;;;12.17;10.60;;;7.90;99.90;;;;;;5006972;28;20879;-69
2024/01/30 09:29:18;;;;;;;11.40;9.40;;;8.00;99.90;;;;;;5012140;28;20444;-70
2024/01/30 09:31:47;;;;;;;13.27;10.80;;;8.00;99.90;;;;;;5017150;28;20223;-69
2024/01/30 09:34:13;;;;;;;13.73;10.60;;;8.10;99.90;;;;;;5014950;28;20222;-69
2024/01/30 09:36:39;;;;;;;13.40;9.87;;;8.10;99.90;;;;;;5013681;28;20532;-69
2024/01/30 09:39:06;;;;;;;13.60;9.33;;;8.10;99.90;;;;;;5011332;28;20420;-69
2024/01/30 09:41:35;;;;;;;12.83;10.13;;;8.20;99.90;;;;;;5012344;28;21277;-69
2024/01/30 09:44:02;;;;;;;12.77;10.30;;;8.20;99.90;;;;;;5014677;28;20516;-69
2024/01/30 09:46:30;;;;;;;12.60;10.73;;;8.20;99.90;;;;;;5011582;28;20411;-69
2024/01/30 09:48:58;;;;;;;14.77;10.50;;;8.10;99.90;;;;;;5008573;28;20502;-69
2024/01/30 09:51:24;;;;;;;14.53;11.83;;;8.10;99.90;;;;;;5011774;28;21154;-68
2024/01/30 09:53:50;;;;;;;14.10;11.97;;;8.20;99.90;;;;;;5018335;28;20435;-69
2024/01/30 09:56:16;;;;;;;12.60;11.30;;;8.20;99.90;;;;;;5008376;28;20428;-68
2024/01/30 09:58:42;;;;;;;17.07;12.57;;;8.10;99.90;;;;;;5011396;28;20217;-69
2024/01/30 10:01:08;;;;;;;19.90;13.37;;;8.20;99.90;;;;;;5016297;28;20849;-69
2024/01/30 10:03:34;;;;;;;16.90;12.80;;;8.30;99.90;;;;;;5014194;28;20470;-68
2024/01/30 10:06:00;;;;;;;16.77;13.23;;;8.30;99.90;;;;;;5014922;28;20382;-68
2024/01/30 10:08:26;;;;;;;20.83;13.83;;;8.60;99.90;;;;;;5019088;28;20430;-69
2024/01/30 10:10:52;;;;;;;15.00;11.87;;;8.60;99.90;;;;;;5013740;28;20976;-68
2024/01/30 10:13:18;;;;;;;13.93;12.23;;;8.70;99.90;;;;;;5018463;28;20445;-68
2024/01/30 10:15:44;;;;;;;15.87;12.90;;;8.70;99.90;;;;;;5009128;28;20249;-68
2024/01/30 10:18:10;;;;;;;14.27;12.40;;;8.70;99.90;;;;;;5002593;28;20237;-68
2024/01/30 10:20:36;;;;;;;21.33;14.30;;;8.80;99.90;;;;;;5011870;28;20478;-68
2024/01/30 10:23:03;;;;;;;17.77;12.87;;;8.80;99.90;;;;;;5005966;28;20180;-68
2024/01/30 10:25:31;;;;;;;17.70;12.93;;;8.80;99.90;;;;;;4991168;28;20424;-69
2024/01/30 10:27:58;;;;;;;20.30;13.37;;;9.00;99.90;;;;;;5011662;28;20441;-68
2024/01/30 10:30:24;;;;;;;15.37;13.27;;;9.10;99.90;;;;;;5017910;28;20549;-68
2024/01/30 10:32:51;;;;;;;19.07;14.70;;;9.00;99.90;;;;;;5007541;28;20446;-68
2024/01/30 10:35:17;;;;;;;19.07;14.67;;;9.10;99.90;;;;;;5008532;28;20451;-69
2024/01/30 10:37:47;;;;;;;18.83;13.53;;;9.10;99.90;;;;;;5010456;28;20468;-68
2024/01/30 10:40:15;;;;;;;16.77;13.53;;;9.10;99.90;;;;;;5013053;28;20181;-68
2024/01/30 10:42:43;;;;;;;19.00;13.67;;;9.10;99.90;;;;;;5015924;28;20469;-67
2024/01/30 10:45:14;;;;;;;16.30;14.33;;;9.10;99.90;;;;;;5014856;28;21011;-69
2024/01/30 10:47:44;;;;;;;16.90;14.10;;;9.20;99.90;;;;;;5014924;28;20545;-69
2024/01/30 10:50:10;;;;;;;15.73;13.53;;;9.30;99.90;;;;;;5010067;28;20517;-69
2024/01/30 10:52:36;;;;;;;19.03;13.17;;;9.50;99.90;;;;;;5010588;28;20799;-68
2024/01/30 10:55:06;;;;;;;17.90;13.97;;;9.50;99.90;;;;;;5011010;28;21100;-68
2024/01/30 10:57:35;;;;;;;17.57;13.33;;;9.70;99.90;;;;;;5012808;28;20462;-69
2024/01/30 11:00:05;;;;;;;15.53;13.27;;;9.80;99.90;;;;;;5006316;28;20424;-68
2024/01/30 11:02:31;;;;;;;15.03;13.40;;;9.90;99.90;;;;;;5008119;28;20420;-69
2024/01/30 11:04:58;;;;;;;19.20;14.23;;;9.90;99.90;;;;;;5014862;28;20808;-69
2024/01/30 11:07:29;;;;;;;18.67;13.50;;;10.00;99.90;;;;;;5016773;28;20809;-72
2024/01/30 11:09:57;;;;;;;15.50;13.10;;;10.10;99.90;;;;;;5009615;28;20446;-68
2024/01/30 11:12:27;;;;;;;24.23;13.73;;;10.10;99.90;;;;;;5010913;28;20435;-68
2024/01/30 11:15:09;;;;;;;18.87;12.80;;;10.10;99.90;;;;;;5013272;28;20527;-69
2024/01/30 11:17:49;;;;;;;15.93;13.27;;;10.20;99.90;;;;;;5011254;28;20474;-69
2024/01/30 11:20:25;;;;;;;18.10;13.33;;;10.20;99.90;;;;;;5009154;28;20531;-69
2024/01/30 11:22:53;;;;;;;18.37;13.80;;;10.20;99.90;;;;;;5012017;28;20853;-68
2024/01/30 11:25:20;;;;;;;17.07;12.70;;;10.30;99.90;;;;;;5009707;28;20481;-69
2024/01/30 11:27:49;;;;;;;14.90;12.67;;;10.30;99.90;;;;;;5009091;28;20438;-71
2024/01/30 11:30:31;;;;;;;16.27;12.80;;;10.40;99.90;;;;;;5015158;28;20561;-70
2024/01/30 11:33:08;;;;;;;14.90;13.10;;;10.50;99.90;;;;;;5004286;28;20439;-69
2024/01/30 11:35:36;;;;;;;17.73;12.90;;;10.70;99.90;;;;;;5010926;28;20518;-68
2024/01/30 11:38:03;;;;;;;15.17;13.30;;;10.70;99.90;;;;;;5013056;28;20927;-68
2024/01/30 11:40:30;;;;;;;15.30;12.40;;;10.80;99.90;;;;;;5009736;28;20423;-69
2024/01/30 11:42:57;;;;;;;14.57;12.47;;;11.00;99.90;;;;;;5012327;28;20814;-69
2024/01/30 11:45:23;;;;;;;14.70;12.20;;;11.00;99.90;;;;;;5017393;28;20467;-69
2024/01/30 11:47:49;;;;;;;19.20;13.10;;;11.10;99.90;;;;;;5009470;28;20872;-69
2024/01/30 11:50:15;;;;;;;19.20;14.23;;;11.20;99.90;;;;;;5013183;28;20210;-70
2024/01/30 11:52:41;;;;;;;20.33;14.50;;;11.30;99.90;;;;;;5009417;28;20600;-69
2024/01/30 11:55:08;;;;;;;15.10;13.17;;;11.40;99.90;;;;;;5009151;28;21001;-69
2024/01/30 11:57:35;;;;;;;18.00;14.37;;;11.40;99.90;;;;;;5012237;28;20459;-68
2024/01/30 12:00:01;;;;;;;15.77;13.47;;;11.50;99.90;;;;;;5009276;28;20471;-68
2024/01/30 12:02:26;;;;;;;16.80;13.83;;;11.70;99.90;;;;;;5011456;28;21066;-68
2024/01/30 12:04:52;;;;;;;17.73;14.70;;;11.70;99.90;;;;;;5010568;28;20447;-68
2024/01/30 12:07:18;;;;;;;17.97;15.37;;;11.80;99.90;;;;;;5012770;28;20475;-68
2024/01/30 12:09:53;;;;;;;19.63;15.40;;;11.90;99.90;;;;;;5013818;28;20880;-68
2024/01/30 12:12:18;;;;;;;18.00;15.40;;;12.00;99.90;;;;;;5011173;28;20246;-69
2024/01/30 12:14:44;;;;;;;19.20;15.40;;;12.00;99.90;;;;;;5006160;28;20466;-68
2024/01/30 12:17:10;;;;;;;17.00;14.60;;;12.10;99.90;;;;;;5012708;28;20667;-69
2024/01/30 12:19:36;;;;;;;21.70;15.23;;;12.00;99.90;;;;;;5012595;28;20184;-69
2024/01/30 12:22:02;;;;;;;18.73;15.20;;;12.00;99.90;;;;;;5012090;28;20435;-69
2024/01/30 12:24:31;;;;;;;20.33;15.23;;;12.20;99.90;;;;;;5013956;28;20833;-68
2024/01/30 12:26:58;;;;;;;19.27;15.27;;;12.30;99.90;;;;;;5019009;28;20427;-68
2024/01/30 12:29:24;;;;;;;19.50;15.07;;;12.50;99.90;;;;;;5002727;28;20431;-68
2024/01/30 12:31:53;;;;;;;17.33;14.00;;;12.70;99.90;;;;;;5016241;28;20458;-69
2024/01/30 12:34:20;;;;;;;16.03;13.20;;;13.20;99.90;;;;;;5011215;28;20307;-68
2024/01/30 12:36:48;;;;;;;17.37;13.00;;;13.60;99.90;;;;;;5033145;28;20491;-68
2024/01/30 12:39:17;;;;;;;17.67;14.60;;;13.80;99.90;;;;;;5038008;28;20427;-68
2024/01/30 12:41:51;;;;;;;17.60;13.60;;;13.80;99.90;;;;;;5033523;28;20427;-68